Time;durP1;ratioP1;P1;durP2;ratioP2;P2;SDS_P1;SDS_P2;PMS_P1;PMS_P2;Temp;Humidity;BMP_temperature;BMP_pressure;BME280_temperature;BME280_humidity;BME280_pressure;Samples;Min_cycle;Max_cycle;Signal;HPM_P1;HPM_P2
2021/04/11 00:01:00;;;;;;;10.50;4.88;;;307.80;1100.80;;;;;;4866349;29;20048;-66
2021/04/11 00:03:28;;;;;;;7.97;4.53;;;307.80;1100.80;;;;;;4860926;29;20025;-71
2021/04/11 00:05:54;;;;;;;8.20;4.15;;;307.70;1100.80;;;;;;4861050;29;20033;-67
2021/04/11 00:08:21;;;;;;;10.65;4.57;;;307.70;1100.80;;;;;;4861119;29;20033;-73
2021/04/11 00:10:50;;;;;;;7.45;4.15;;;307.70;1100.80;;;;;;4862549;29;20034;-68
2021/04/11 00:13:26;;;;;;;8.40;4.30;;;307.70;1100.80;;;;;;4861417;29;20025;-70
2021/04/11 00:15:52;;;;;;;6.50;4.28;;;307.70;1100.80;;;;;;4861197;29;20604;-65
2021/04/11 00:18:18;;;;;;;7.43;4.63;;;307.70;1075.20;;;;;;4846470;29;20113;-77
2021/04/11 00:20:44;;;;;;;10.55;4.55;;;307.70;1100.80;;;;;;4856077;29;20195;-66
2021/04/11 00:23:11;;;;;;;7.22;3.88;;;307.70;1075.20;;;;;;4860427;29;20029;-78
2021/04/11 00:25:39;;;;;;;6.40;4.10;;;307.70;1075.20;;;;;;4862430;29;20041;-76
2021/04/11 00:28:07;;;;;;;8.80;4.07;;;307.70;1075.20;;;;;;4858815;29;20029;-77
2021/04/11 00:30:36;;;;;;;9.05;4.43;;;307.70;1075.20;;;;;;4862488;29;20025;-66
2021/04/11 00:33:05;;;;;;;8.18;4.50;;;307.70;1075.20;;;;;;4859624;29;20054;-76
2021/04/11 00:35:31;;;;;;;7.22;3.90;;;307.70;1049.60;;;;;;4862501;29;20108;-66
2021/04/11 00:37:57;;;;;;;8.65;4.45;;;307.70;1075.20;;;;;;4859135;29;20033;-76
2021/04/11 00:40:36;;;;;;;5.85;4.15;;;307.70;1049.60;;;;;;4861667;29;20025;-66
2021/04/11 00:43:05;;;;;;;10.98;4.38;;;307.70;1049.60;;;;;;4862112;29;20033;-77
2021/04/11 00:45:42;;;;;;;8.40;4.25;;;307.70;1049.60;;;;;;4862115;29;20455;-74
2021/04/11 00:48:10;;;;;;;8.95;4.63;;;307.50;1075.20;;;;;;4856619;29;20079;-77
2021/04/11 00:50:37;;;;;;;8.32;4.88;;;307.50;1126.40;;;;;;4856709;29;20065;-69
2021/04/11 00:53:03;;;;;;;7.78;4.60;;;307.40;1177.60;;;;;;4857083;29;20070;-76
2021/04/11 00:55:29;;;;;;;9.80;4.72;;;307.30;1177.60;;;;;;4859887;29;20108;-65
2021/04/11 00:57:56;;;;;;;11.38;4.82;;;307.30;1152.00;;;;;;4860188;29;20536;-67
2021/04/11 01:00:28;;;;;;;8.35;4.75;;;307.20;1177.60;;;;;;4859851;29;20117;-74
2021/04/11 01:02:54;;;;;;;11.90;5.07;;;307.30;1177.60;;;;;;4859247;29;20036;-77
2021/04/11 01:05:30;;;;;;;10.82;4.82;;;307.20;1152.00;;;;;;4859550;29;20033;-75
2021/04/11 01:07:56;;;;;;;12.60;5.97;;;282.40;1152.00;;;;;;4860181;29;20038;-65
2021/04/11 01:10:30;;;;;;;12.80;7.25;;;282.40;1203.20;;;;;;4854093;29;20101;-76
2021/04/11 01:12:56;;;;;;;14.23;7.35;;;282.30;1254.40;;;;;;4861695;29;20021;-66
2021/04/11 01:15:24;;;;;;;16.83;8.15;;;;;;;;;;4861131;29;20030;-73
2021/04/11 01:17:50;;;;;;;11.65;7.63;;;282.00;1356.80;;;;;;4846602;29;20022;-67
2021/04/11 01:20:17;;;;;;;16.38;7.60;;;281.70;1382.40;;;;;;4861658;29;20457;-76
2021/04/11 01:23:08;;;;;;;12.68;7.45;;;256.90;1356.80;;;;;;4857775;29;20025;-78
2021/04/11 01:25:36;;;;;;;17.92;7.97;;;256.80;1356.80;;;;;;4861436;29;20272;-72
2021/04/11 01:28:09;;;;;;;15.25;8.35;;;256.80;1817.60;;;;;;4859578;29;20053;-77
2021/04/11 01:30:38;;;;;;;14.48;7.60;;;256.60;1356.80;;;;;;4861062;29;20435;-66
2021/04/11 01:33:07;;;;;;;10.80;7.25;;;256.60;1356.80;;;;;;4844877;29;20029;-74
2021/04/11 01:35:33;;;;;;;13.30;7.68;;;256.60;1382.40;;;;;;4850706;29;20499;-78
2021/04/11 01:37:59;;;;;;;15.55;7.43;;;256.50;1382.40;;;;;;4859522;29;20025;-72
2021/04/11 01:40:40;;;;;;;11.45;6.75;;;256.50;1382.40;;;;;;4848897;29;20108;-77
2021/04/11 01:43:07;;;;;;;13.02;6.72;;;256.50;1382.40;;;;;;4859189;29;20034;-78
2021/04/11 01:45:36;;;;;;;12.48;6.90;;;256.50;1382.40;;;;;;4861052;29;20045;-66
2021/04/11 01:48:02;;;;;;;13.43;7.38;;;256.60;1382.40;;;;;;4854901;29;20030;-74
2021/04/11 01:50:29;;;;;;;11.88;6.40;;;256.50;1382.40;;;;;;4860431;29;20104;-76
2021/04/11 01:52:57;;;;;;;12.05;6.55;;;256.60;1382.40;;;;;;4859278;29;20548;-79
2021/04/11 01:55:24;;;;;;;11.82;6.03;;;256.50;1382.40;;;;;;4849959;29;20072;-77
2021/04/11 01:57:54;;;;;;;11.52;6.25;;;256.50;1382.40;;;;;;4856164;29;20033;-74
2021/04/11 02:00:32;;;;;;;12.50;6.72;;;256.50;1382.40;;;;;;4857934;29;20041;-76
2021/04/11 02:03:00;;;;;;;14.23;6.90;;;256.30;1408.00;;;;;;4857602;29;20030;-67
2021/04/11 02:05:26;;;;;;;15.35;6.75;;;256.30;1408.00;;;;;;4852583;29;20045;-72
2021/04/11 02:07:55;;;;;;;15.50;8.02;;;256.20;1433.60;;;;;;4859238;29;20523;-68
2021/04/11 02:10:27;;;;;;;16.67;8.02;;;256.10;1433.60;;;;;;4860405;29;20165;-73
2021/04/11 02:12:53;;;;;;;17.42;7.65;;;256.10;1459.20;;;;;;4860257;29;20026;-67
2021/04/11 02:15:23;;;;;;;14.93;8.25;;;231.20;1484.80;;;;;;4858859;29;20165;-78
2021/04/11 02:17:50;;;;;;;13.93;7.22;;;;;;;;;;4847178;29;20070;-77
2021/04/11 02:20:16;;;;;;;16.42;8.25;;;231.20;1484.80;;;;;;4859756;29;20506;-76
2021/04/11 02:22:42;;;;;;;13.38;7.88;;;231.10;1484.80;;;;;;4858111;29;20030;-70
2021/04/11 02:25:14;;;;;;;12.02;7.82;;;231.10;1484.80;;;;;;4858961;29;20031;-72
2021/04/11 02:27:39;;;;;;;16.33;7.93;;;231.10;1484.80;;;;;;4858621;29;20388;-76
2021/04/11 02:30:08;;;;;;;16.25;8.27;;;231.10;1484.80;;;;;;4859080;29;20025;-66
2021/04/11 02:32:34;;;;;;;15.05;8.63;;;231.00;1510.40;;;;;;4847855;29;20044;-67
2021/04/11 02:35:02;;;;;;;17.60;8.38;;;231.00;1510.40;;;;;;4851058;29;20029;-67
2021/04/11 02:37:31;;;;;;;14.85;8.50;;;230.90;1510.40;;;;;;4854810;29;20029;-67
2021/04/11 02:39:58;;;;;;;14.10;7.47;;;230.90;1510.40;;;;;;4857286;29;20108;-76
2021/04/11 02:42:29;;;;;;;17.02;8.00;;;230.90;1510.40;;;;;;4860321;29;20033;-73
2021/04/11 02:45:01;;;;;;;13.75;8.07;;;;;;;;;;4860277;29;20021;-67
2021/04/11 02:47:27;;;;;;;15.27;8.70;;;231.10;1510.40;;;;;;4857701;29;20125;-72
2021/04/11 02:49:53;;;;;;;16.30;8.75;;;231.00;1510.40;;;;;;4855649;29;20073;-76
2021/04/11 02:52:45;;;;;;;16.33;8.52;;;231.00;1510.40;;;;;;4859456;29;20037;-75
2021/04/11 02:55:13;;;;;;;14.07;7.57;;;231.00;1510.40;;;;;;4802957;29;20066;-73
2021/04/11 02:57:39;;;;;;;14.85;8.90;;;231.10;1510.40;;;;;;4793651;29;20058;-78
2021/04/11 03:00:19;;;;;;;15.75;7.93;;;231.10;1484.80;;;;;;4798280;29;20126;-73
2021/04/11 03:02:46;;;;;;;16.45;7.53;;;231.10;1484.80;;;;;;4802004;29;20098;-66
2021/04/11 03:05:13;;;;;;;14.63;8.27;;;231.10;1510.40;;;;;;4803692;29;20042;-76
2021/04/11 03:07:47;;;;;;;15.40;8.00;;;231.10;1484.80;;;;;;4799220;29;20031;-66
2021/04/11 03:10:23;;;;;;;;;;;231.10;1510.40;;;;;;4797978;29;20027;-67
2021/04/11 03:12:51;;;;;;;16.30;8.73;;;231.00;1561.60;;;;;;4802720;29;19909;-79
2021/04/11 03:15:18;;;;;;;17.23;9.27;;;230.90;1536.00;;;;;;4803113;29;20039;-67
2021/04/11 03:17:48;;;;;;;16.55;9.60;;;230.90;1561.60;;;;;;4812187;29;20100;-68
2021/04/11 03:20:23;;;;;;;18.08;10.18;;;230.90;1587.20;;;;;;4812434;29;20137;-67
2021/04/11 03:22:57;;;;;;;18.63;9.88;;;230.90;1561.60;;;;;;4806475;29;20042;-71
2021/04/11 03:25:23;;;;;;;;;;;230.80;1587.20;;;;;;4809014;29;20122;-75
2021/04/11 03:27:52;;;;;;;16.70;8.50;;;230.70;1587.20;;;;;;4806428;29;19913;-76
2021/04/11 03:30:23;;;;;;;14.13;8.10;;;230.70;1561.60;;;;;;4800692;29;20490;-72
2021/04/11 03:32:59;;;;;;;16.77;7.63;;;230.60;1587.20;;;;;;4848630;29;20106;-66
2021/04/11 03:35:27;;;;;;;14.73;8.27;;;230.50;1587.20;;;;;;4863367;29;20022;-74
2021/04/11 03:37:56;;;;;;;16.15;8.07;;;230.50;1561.60;;;;;;4862320;29;20025;-73
2021/04/11 03:40:27;;;;;;;12.82;8.15;;;230.40;1664.00;;;;;;4861381;29;20034;-76
2021/04/11 03:42:57;;;;;;;14.27;7.85;;;230.40;1664.00;;;;;;4863122;29;20432;-66
2021/04/11 03:45:23;;;;;;;10.98;7.68;;;205.70;1689.60;;;;;;4863323;29;20053;-71
2021/04/11 03:48:05;;;;;;;13.40;8.18;;;205.60;1689.60;;;;;;4859762;29;20088;-69
2021/04/11 03:50:38;;;;;;;13.32;7.50;;;205.60;1664.00;;;;;;4861178;29;20049;-67
2021/04/11 03:53:30;;;;;;;14.90;8.40;;;205.60;1689.60;;;;;;4850449;29;20076;-75
2021/04/11 03:56:01;;;;;;;21.38;8.23;;;205.60;1715.20;;;;;;4851988;29;20443;-72
2021/04/11 03:58:39;;;;;;;16.58;8.27;;;205.50;1740.80;;;;;;4857823;29;20527;-66
2021/04/11 04:01:09;;;;;;;14.05;7.45;;;205.50;1740.80;;;;;;4853639;29;20044;-65
2021/04/11 04:03:37;;;;;;;13.02;7.32;;;205.50;1766.40;;;;;;4849367;29;20113;-76
2021/04/11 04:06:26;;;;;;;30.27;8.30;;;205.60;2022.40;;;;;;4862289;29;20034;-72
2021/04/11 04:08:52;;;;;;;25.20;8.93;;;205.50;1740.80;;;;;;4858076;29;20053;-66
2021/04/11 04:11:33;;;;;;;20.15;7.60;;;205.50;1740.80;;;;;;4859187;29;20082;-75
2021/04/11 04:14:14;;;;;;;14.75;7.63;;;205.50;1766.40;;;;;;4857189;29;20030;-76
2021/04/11 04:17:10;;;;;;;18.05;7.70;;;205.50;1715.20;;;;;;4852204;29;20077;-68
2021/04/11 04:20:22;;;;;;;13.25;7.03;;;205.50;1740.80;;;;;;4849962;29;20433;-73
2021/04/11 04:22:51;;;;;;;12.90;8.27;;;205.60;1715.20;;;;;;4837382;29;20086;-68
2021/04/11 04:25:41;;;;;;;16.58;8.30;;;205.60;1766.40;;;;;;4850282;29;20038;-76
2021/04/11 04:28:21;;;;;;;20.58;9.93;;;205.70;1740.80;;;;;;4855756;29;20152;-76
2021/04/11 04:30:52;;;;;;;19.70;10.80;;;230.50;1740.80;;;;;;4853371;29;20045;-66
2021/04/11 04:33:53;;;;;;;16.45;9.48;;;230.50;1740.80;;;;;;4854197;29;20507;-68
2021/04/11 04:36:51;;;;;;;27.77;14.52;;;230.60;1715.20;;;;;;4857171;29;20037;-69
2021/04/11 04:39:26;;;;;;;14.52;8.57;;;230.90;1715.20;;;;;;4858236;29;20018;-70
2021/04/11 04:42:10;;;;;;;18.55;8.93;;;230.80;1689.60;;;;;;4857175;29;20033;-75
2021/04/11 04:55:25;;;;;;;20.52;10.57;;;231.30;1689.60;;;;;;5136339;27;20404;-67
2021/04/11 04:58:08;;;;;;;16.13;9.65;;;307.30;1561.60;;;;;;5116480;27;20035;-69
2021/04/11 05:00:40;;;;;;;21.60;9.65;;;307.70;1510.40;;;;;;5115654;28;20114;-73
2021/04/11 05:03:15;;;;;;;17.08;8.90;;;307.90;1510.40;;;;;;5119180;28;20032;-78
2021/04/11 05:06:01;;;;;;;20.05;10.77;;;307.70;1510.40;;;;;;5117406;28;20494;-72
2021/04/11 05:08:31;;;;;;;17.20;10.05;;;;;;;;;;5109321;28;20032;-79
2021/04/11 05:11:10;;;;;;;19.20;10.38;;;;;;;;;;5125891;27;20027;-74
2021/04/11 05:13:42;;;;;;;15.23;8.63;;;;;;;;;;5122502;27;20069;-71
2021/04/11 05:16:20;;;;;;;15.07;9.83;;;;;;;;;;5119235;27;20048;-63
2021/04/11 05:18:57;;;;;;;17.80;8.82;;;384.60;1331.20;;;;;;5119211;28;20399;-65
2021/04/11 05:21:27;;;;;;;13.90;8.90;;;384.30;1331.20;;;;;;5101217;28;20488;-67
2021/04/11 05:24:15;;;;;;;19.35;9.80;;;384.60;1305.60;;;;;;5096401;27;20093;-65
2021/04/11 05:26:44;;;;;;;17.48;8.77;;;;;;;;;;5102159;28;20040;-69
2021/04/11 05:29:13;;;;;;;18.25;10.23;;;;;;;;;;5108365;27;20024;-70
2021/04/11 05:31:40;;;;;;;28.58;10.30;;;;;;;;;;5104478;28;20050;-66
2021/04/11 05:34:08;;;;;;;24.60;11.30;;;;;;;;;;5100383;28;20085;-66
2021/04/11 05:36:51;;;;;;;17.77;11.07;;;486.60;1075.20;;;;;;5105499;28;20031;-76
2021/04/11 05:39:26;;;;;;;;;;;486.40;1075.20;;;;;;5100708;28;20418;-65
2021/04/11 05:42:02;;;;;;;15.77;8.55;;;461.40;1100.80;;;;;;5103332;28;20376;-71
2021/04/11 05:44:32;;;;;;;11.55;7.97;;;461.50;1126.40;;;;;;5101269;28;20044;-66
2021/04/11 05:47:11;;;;;;;17.23;8.68;;;461.30;1049.60;;;;;;5091535;28;20029;-69
2021/04/11 05:49:56;;;;;;;15.52;9.27;;;461.20;1049.60;;;;;;5089671;28;20078;-66
2021/04/11 05:52:51;;;;;;;17.35;10.50;;;;;;;;;;5095324;28;20033;-65
2021/04/11 05:55:18;;;;;;;18.48;10.75;;;;;;;;;;5065337;28;20053;-64
2021/04/11 05:57:47;;;;;;;16.42;11.20;;;;;;;;;;5059347;28;20135;-65
2021/04/11 06:00:17;;;;;;;21.35;12.35;;;;;;;;;;5053541;28;20037;-65
2021/04/11 06:02:48;;;;;;;18.88;12.43;;;;;;;;;;5051727;28;20048;-65
2021/04/11 06:05:24;;;;;;;29.17;13.18;;;;;;;;;;5058784;28;20048;-65
2021/04/11 06:08:11;;;;;;;23.33;13.43;;;;;;;;;;5053387;28;20025;-65
2021/04/11 06:10:42;;;;;;;20.63;13.15;;;;;;;;;;5067817;28;20878;-64
2021/04/11 06:13:13;;;;;;;18.10;13.27;;;;;;;;;;5069104;28;20043;-65
2021/04/11 06:15:49;;;;;;;22.13;14.48;;;;;;;;;;5054084;28;20021;-65
2021/04/11 06:18:15;;;;;;;19.85;13.45;;;;;;;;;;5057885;28;20037;-64
2021/04/11 06:20:45;;;;;;;25.45;13.80;;;;;;;;;;5060391;28;20078;-65
2021/04/11 06:23:17;;;;;;;19.38;12.80;;;;;;;;;;5065865;28;20143;-66
2021/04/11 06:25:59;;;;;;;18.30;11.93;;;;;;;;;;5063148;28;20110;-65
2021/04/11 06:28:32;;;;;;;23.60;13.10;;;;;;;;;;5062672;28;20108;-65
2021/04/11 06:31:03;;;;;;;20.77;12.07;;;;;;;;;;5064831;28;20280;-64
2021/04/11 06:33:33;;;;;;;33.47;13.70;;;;;;;;;;5083575;28;20028;-65
2021/04/11 06:36:01;;;;;;;21.65;12.65;;;;;;;;;;5086605;28;20050;-65
2021/04/11 06:38:29;;;;;;;23.75;13.23;;;;;;;;;;5087250;28;20448;-65
2021/04/11 06:41:07;;;;;;;22.02;13.80;;;;;;;;;;5091610;28;20060;-65
2021/04/11 06:43:49;;;;;;;23.17;13.82;;;;;;;;;;5083521;28;20477;-65
2021/04/11 06:46:15;;;;;;;22.33;13.90;;;;;;;;;;5087055;28;20030;-66
2021/04/11 06:48:57;;;;;;;23.77;15.02;;;;;;;;;;5083218;28;20027;-65
2021/04/11 06:51:23;;;;;;;27.50;13.95;;;;;;;;;;5074802;28;20543;-66
2021/04/11 06:54:07;;;;;;;27.00;13.90;;;;;;;;;;5078456;28;20057;-66
2021/04/11 06:56:39;;;;;;;22.02;14.15;;;;;;;;;;5081518;28;20558;-66
2021/04/11 06:59:13;;;;;;;22.73;13.13;;;;;;;;;;5084881;28;20117;-66
2021/04/11 07:02:01;;;;;;;49.33;27.40;;;;;;;;;;5085544;28;20381;-65
2021/04/11 07:04:27;;;;;;;42.58;22.30;;;;;;;;;;5085479;28;20177;-67
2021/04/11 07:07:12;;;;;;;24.15;15.68;;;;;;;;;;5082755;28;20146;-67
2021/04/11 07:09:56;;;;;;;23.15;15.50;;;;;;;;;;5083217;28;20247;-66
2021/04/11 07:12:35;;;;;;;24.42;15.18;;;;;;;;;;5084977;28;20051;-67
2021/04/11 07:15:19;;;;;;;25.85;14.77;;;;;;;;;;5085316;28;20131;-67
2021/04/11 07:18:02;;;;;;;25.70;15.48;;;;;;;;;;5083324;28;20044;-66
2021/04/11 07:20:43;;;;;;;21.57;15.10;;;;;;;;;;5077478;28;20061;-69
2021/04/11 07:23:28;;;;;;;23.42;14.30;;;;;;;;;;5087814;28;20330;-69
2021/04/11 07:25:57;;;;;;;25.25;14.68;;;;;;;;;;5085845;28;20392;-67
2021/04/11 07:28:27;;;;;;;26.95;15.48;;;;;;;;;;5086965;28;20024;-70
2021/04/11 07:30:56;;;;;;;28.85;14.88;;;;;;;;;;5081575;28;20097;-68
2021/04/11 07:33:28;;;;;;;25.85;15.55;;;;;;;;;;5087776;28;20113;-66
2021/04/11 07:36:00;;;;;;;25.85;15.80;;;;;;;;;;5089798;28;20395;-66
2021/04/11 07:38:35;;;;;;;26.00;15.60;;;;;;;;;;5091310;28;20051;-67
2021/04/11 07:41:04;;;;;;;22.77;13.55;;;;;;;;;;5091218;28;20028;-69
2021/04/11 07:43:50;;;;;;;24.42;14.57;;;;;;;;;;5088623;28;20098;-70
2021/04/11 07:46:36;;;;;;;22.00;13.50;;;;;;;;;;5080547;28;20108;-68
2021/04/11 07:49:20;;;;;;;18.88;12.30;;;;;;;;;;5091555;28;20024;-69
2021/04/11 07:51:50;;;;;;;18.58;11.52;;;;;;;;;;5077302;28;20035;-66
2021/04/11 07:54:35;;;;;;;22.90;14.50;;;;;;;;;;5081040;28;20493;-66
2021/04/11 07:57:04;;;;;;;23.85;14.48;;;;;;;;;;5084181;28;20111;-65
2021/04/11 07:59:39;;;;;;;20.60;11.15;;;;;;;;;;5091340;28;20039;-67
2021/04/11 08:02:20;;;;;;;24.25;10.95;;;;;;;;;;5084902;28;20027;-67
2021/04/11 08:05:04;;;;;;;21.88;11.70;;;;;;;;;;5090399;28;20611;-63
2021/04/11 08:07:36;;;;;;;19.92;9.07;;;;;;;;;;5077834;28;20082;-65
2021/04/11 08:10:02;;;;;;;28.98;16.33;;;;;;;;;;5085164;28;20031;-65
2021/04/11 08:12:47;;;;;;;16.35;9.10;;;;;;;;;;5088822;28;20020;-66
2021/04/11 08:15:19;;;;;;;21.48;11.05;;;;;;;;;;5084513;28;20025;-66
2021/04/11 08:18:02;;;;;;;10.82;7.65;;;;;;;;;;5091179;28;20081;-67
2021/04/11 08:20:37;;;;;;;13.75;8.90;;;;;;;;;;5088034;28;20016;-66
2021/04/11 08:23:18;;;;;;;11.43;6.40;;;;;;;;;;5089252;28;20036;-64
2021/04/11 08:25:54;;;;;;;16.92;7.57;;;;;;;;;;5092170;28;20085;-65
2021/04/11 08:28:35;;;;;;;16.88;6.72;;;;;;;;;;5090527;28;20027;-68
2021/04/11 08:31:21;;;;;;;10.57;6.40;;;;;;;;;;5077272;28;20477;-67
2021/04/11 08:33:51;;;;;;;12.18;6.88;;;;;;;;;;5090429;28;20459;-68
2021/04/11 08:36:35;;;;;;;14.85;6.65;;;;;;;;;;5086896;28;20040;-66
2021/04/11 08:39:07;;;;;;;12.57;6.07;;;;;;;;;;5080414;28;20491;-69
2021/04/11 08:41:43;;;;;;;13.80;6.40;;;;;;;;;;5082743;28;20028;-69
2021/04/11 08:44:12;;;;;;;14.75;6.30;;;;;;;;;;5086888;28;20115;-67
2021/04/11 08:46:56;;;;;;;11.43;7.00;;;;;;;;;;5077008;28;20173;-71
2021/04/11 08:49:26;;;;;;;13.80;6.70;;;;;;;;;;5087498;28;20028;-67
2021/04/11 08:52:04;;;;;;;12.38;7.65;;;;;;;;;;5085677;28;20061;-69
2021/04/11 08:54:49;;;;;;;11.30;7.07;;;;;;;;;;5081068;28;20048;-68
2021/04/11 08:57:48;;;;;;;33.50;7.38;;;;;;;;;;5091354;28;20035;-70
2021/04/11 09:00:21;;;;;;;16.58;8.15;;;;;;;;;;5062976;28;20063;-67
2021/04/11 09:02:47;;;;;;;;;;;;;;;;;;5060075;28;20040;-65
2021/04/11 09:05:16;;;;;;;15.50;9.32;;;;;;;;;;5051480;28;19909;-68
2021/04/11 09:07:51;;;;;;;15.20;8.48;;;;;;;;;;5060550;28;20579;-73
2021/04/11 09:10:35;;;;;;;14.57;10.23;;;;;;;;;;5051240;28;20075;-66
2021/04/11 09:13:14;;;;;;;18.80;12.38;;;;;;;;;;5051755;28;20131;-71
2021/04/11 09:15:40;;;;;;;20.90;10.88;;;;;;;;;;5055472;28;20036;-66
2021/04/11 09:18:13;;;;;;;21.75;10.88;;;;;;;;;;5054727;28;20043;-71
2021/04/11 09:21:00;;;;;;;14.00;9.77;;;;;;;;;;5057235;28;20116;-68
2021/04/11 09:23:46;;;;;;;19.45;13.98;;;;;;;;;;5016244;28;20459;-73
2021/04/11 09:26:18;;;;;;;21.08;11.40;;;;;;;;;;5022168;28;20042;-65
2021/04/11 09:29:03;;;;;;;15.98;8.75;;;;;;;;;;5020338;28;20045;-67
2021/04/11 09:31:29;;;;;;;15.02;8.60;;;;;;;;;;5023327;28;20553;-67
2021/04/11 09:34:04;;;;;;;18.15;9.93;;;;;;;;;;5021871;28;20512;-68
2021/04/11 09:36:44;;;;;;;18.35;12.10;;;;;;;;;;5046782;28;21840;-71
2021/04/11 09:39:10;;;;;;;13.40;8.95;;;;;;;;;;5054281;28;20037;-74
2021/04/11 09:41:36;;;;;;;17.23;11.05;;;;;;;;;;5049208;28;20399;-68
2021/04/11 09:44:14;;;;;;;20.95;9.60;;;;;;;;;;5059286;28;20534;-74
2021/04/11 09:46:57;;;;;;;18.42;8.95;;;;;;;;;;5055221;28;20071;-72
2021/04/11 09:49:23;;;;;;;19.65;10.10;;;;;;;;;;5057011;28;20033;-73
2021/04/11 09:52:12;;;;;;;14.68;9.00;;;;;;;;;;5063996;28;20118;-68
2021/04/11 09:54:38;;;;;;;18.08;9.20;;;;;;;;;;5049897;28;20053;-70
2021/04/11 09:57:22;;;;;;;15.55;8.38;;;;;;;;;;5068653;28;20029;-74
2021/04/11 10:00:01;;;;;;;15.40;7.07;;;;;;;;;;5065876;28;20043;-67
2021/04/11 10:02:52;;;;;;;17.10;7.20;;;;;;;;;;5089103;28;20043;-68
2021/04/11 10:05:34;;;;;;;13.35;6.20;;;;;;;;;;5088724;28;20047;-74
2021/04/11 10:08:20;;;;;;;11.00;7.45;;;;;;;;;;5089298;28;20020;-70
2021/04/11 10:10:58;;;;;;;14.52;6.90;;;;;;;;;;5079825;28;20020;-67
2021/04/11 10:13:44;;;;;;;16.40;7.10;;;;;;;;;;5082525;28;20029;-68
2021/04/11 10:16:13;;;;;;;11.63;6.47;;;;;;;;;;5102139;28;20123;-71
2021/04/11 10:18:57;;;;;;;9.90;6.00;;;;;;;;;;5104953;28;20093;-66
2021/04/11 10:21:24;;;;;;;10.52;5.82;;;;;;;;;;5103513;28;20511;-69
2021/04/11 10:24:15;;;;;;;12.35;6.10;;;;;;;;;;5100572;27;20445;-67
2021/04/11 10:26:45;;;;;;;12.90;5.53;;;;;;;;;;5111522;28;20038;-66
2021/04/11 10:29:25;;;;;;;8.93;5.82;;;;;;;;;;5100713;28;20034;-69
2021/04/11 10:32:13;;;;;;;15.45;7.45;;;;;;;;;;5097942;28;20028;-67
2021/04/11 10:34:43;;;;;;;9.80;5.40;;;;;;;;;;5107192;27;20066;-68
2021/04/11 10:37:19;;;;;;;8.05;5.50;;;;;;;;;;5104725;27;20030;-69
2021/04/11 10:39:45;;;;;;;10.18;6.05;;;;;;;;;;5109249;27;20593;-69
2021/04/11 10:42:25;;;;;;;15.68;7.88;;;;;;;;;;5101452;28;20036;-67
2021/04/11 10:44:51;;;;;;;14.43;8.48;;;;;;;;;;5106502;27;20120;-70
2021/04/11 10:47:20;;;;;;;21.80;12.57;;;;;;;;;;5108050;28;20029;-66
2021/04/11 10:49:58;;;;;;;20.60;11.07;;;;;;;;;;5104603;27;20474;-79
2021/04/11 10:52:33;;;;;;;18.15;8.20;;;;;;;;;;5104308;27;20112;-77
2021/04/11 10:54:59;;;;;;;16.70;8.40;;;;;;;;;;5084097;28;20485;-75
2021/04/11 10:57:43;;;;;;;14.88;5.60;;;;;;;;;;5088709;28;20031;-68
2021/04/11 11:00:22;;;;;;;11.23;7.05;;;;;;;;;;5089972;28;20102;-68
2021/04/11 11:03:06;;;;;;;11.07;6.70;;;;;;;;;;5084510;28;20166;-76
2021/04/11 11:05:41;;;;;;;12.40;6.15;;;;;;;;;;5084966;28;20194;-74
2021/04/11 11:08:21;;;;;;;7.28;5.10;;;;;;;;;;5084894;28;20088;-68
2021/04/11 11:10:55;;;;;;;14.98;6.22;;;;;;;;;;5087915;28;20496;-67
2021/04/11 11:13:39;;;;;;;10.30;5.93;;;;;;;;;;5084909;28;20470;-80
2021/04/11 11:16:20;;;;;;;8.60;5.05;;;;;;;;;;5078414;28;20077;-75
2021/04/11 11:18:56;;;;;;;11.70;6.63;;;;;;;;;;5083594;28;20027;-72
2021/04/11 11:21:37;;;;;;;10.63;4.90;;;;;;;;;;5089763;28;20405;-71
2021/04/11 11:24:20;;;;;;;10.75;6.35;;;;;;;;;;5090727;28;20486;-74
2021/04/11 11:27:02;;;;;;;14.60;8.95;;;;;;;;;;5092304;28;20024;-73
2021/04/11 11:29:31;;;;;;;93.40;71.72;;;;;;;;;;5091418;28;20481;-76
2021/04/11 11:32:03;;;;;;;11.48;7.13;;;;;;;;;;5090951;28;20450;-73
2021/04/11 11:34:35;;;;;;;9.10;4.80;;;;;;;;;;5082441;28;20017;-68
2021/04/11 11:37:04;;;;;;;12.00;6.78;;;;;;;;;;5081619;28;20107;-76
2021/04/11 11:39:35;;;;;;;39.45;26.48;;;;;;;;;;5085762;28;20028;-68
2021/04/11 11:42:05;;;;;;;31.58;21.45;;;;;;;;;;5081383;28;20023;-68
2021/04/11 11:44:39;;;;;;;25.02;16.75;;;;;;;;;;5085502;28;20489;-79
2021/04/11 11:47:12;;;;;;;9.32;5.38;;;;;;;;;;5089727;28;20383;-79
2021/04/11 11:49:44;;;;;;;21.60;14.75;;;;;;;;;;5085154;28;20073;-69
2021/04/11 11:52:14;;;;;;;14.85;9.32;;;;;;;;;;5085307;28;20446;-86
2021/04/11 11:54:56;;;;;;;36.22;20.50;;;;;;;;;;5086719;28;20052;-86
2021/04/11 11:57:25;;;;;;;12.00;4.70;;;;;;;;;;5086240;28;20024;-81
2021/04/11 12:00:03;;;;;;;17.98;11.48;;;;;;;;;;5087743;28;20054;-85
2021/04/11 12:02:35;;;;;;;15.95;10.70;;;;;;;;;;5085806;28;20069;-82
2021/04/11 12:05:04;;;;;;;17.45;11.00;;;;;;;;;;5083195;28;20035;-77
2021/04/11 12:07:36;;;;;;;8.77;4.72;;;;;;;;;;5086258;28;20426;-77
2021/04/11 12:10:07;;;;;;;17.92;11.20;;;;;;;;;;5081977;28;20047;-79
2021/04/11 12:12:35;;;;;;;24.20;15.80;;;;;;;;;;5092228;28;20044;-76
2021/04/11 12:15:11;;;;;;;25.92;17.23;;;;;;;;;;5088559;28;20477;-70
2021/04/11 12:17:56;;;;;;;24.55;15.80;;;;;;;;;;5083883;28;20168;-72
2021/04/11 12:20:22;;;;;;;170.98;112.82;;;;;;;;;;5081215;28;20116;-70
2021/04/11 12:22:53;;;;;;;159.80;102.72;;;;;;;;;;5084179;28;20107;-70
2021/04/11 12:25:19;;;;;;;34.88;19.90;;;;;;;;;;5080587;28;20044;-68
2021/04/11 12:27:46;;;;;;;62.38;42.70;;;;;;;;;;5083716;28;20046;-71
2021/04/11 12:30:13;;;;;;;36.38;25.70;;;;;;;;;;5087113;28;20102;-68
2021/04/11 12:33:02;;;;;;;22.73;14.40;;;;;;;;;;5084139;28;20020;-68
2021/04/11 12:35:28;;;;;;;49.42;32.67;;;;;;;;;;5082711;28;20036;-67
2021/04/11 12:38:13;;;;;;;36.55;26.08;;;;;;;;;;5090663;28;20132;-68
2021/04/11 12:40:42;;;;;;;44.40;27.77;;;;;;;;;;5079015;28;20173;-69
2021/04/11 12:43:16;;;;;;;21.33;13.38;;;;;;;;;;5083319;28;20020;-69
2021/04/11 12:45:46;;;;;;;33.03;21.88;;;;;;;;;;5083641;28;20485;-70
2021/04/11 12:48:28;;;;;;;16.58;7.00;;;;;;;;;;5090336;28;20166;-72
2021/04/11 12:50:57;;;;;;;32.30;19.55;;;;;;;;;;5086028;28;20473;-67
2021/04/11 12:53:27;;;;;;;14.90;9.15;;;;;;;;;;5080331;28;20045;-70
2021/04/11 12:55:53;;;;;;;13.20;6.63;;;;;;;;;;5085510;28;20039;-68
2021/04/11 12:58:24;;;;;;;13.30;7.32;;;;;;;;;;5084680;28;20364;-69
2021/04/11 13:00:53;;;;;;;19.48;11.73;;;;;;;;;;5087210;28;20033;-68
2021/04/11 13:03:28;;;;;;;15.40;8.20;;;;;;;;;;5086565;28;20040;-68
2021/04/11 13:05:59;;;;;;;20.42;10.02;;;;;;;;;;5087280;28;20372;-72
2021/04/11 13:08:37;;;;;;;19.75;9.25;;;;;;;;;;5090073;28;20096;-68
2021/04/11 13:11:06;;;;;;;13.70;8.15;;;;;;;;;;5083124;28;20023;-77
2021/04/11 13:13:53;;;;;;;14.60;8.73;;;;;;;;;;5094346;28;20135;-72
2021/04/11 13:16:31;;;;;;;19.73;9.48;;;;;;;;;;5086631;28;20045;-73
2021/04/11 13:19:03;;;;;;;20.02;10.05;;;;;;;;;;5086261;28;20016;-80
2021/04/11 13:21:31;;;;;;;18.02;8.82;;;;;;;;;;5087149;28;20051;-72
2021/04/11 13:24:03;;;;;;;12.90;7.50;;;;;;;;;;5078681;28;20043;-70
2021/04/11 13:26:40;;;;;;;10.52;6.40;;;;;;;;;;5092013;28;20043;-73
2021/04/11 13:29:08;;;;;;;10.68;3.78;;;;;;;;;;5088639;28;20048;-69
2021/04/11 13:31:38;;;;;;;9.60;3.38;;;;;;;;;;5093612;28;20028;-70
2021/04/11 13:34:06;;;;;;;7.03;3.10;;;;;;;;;;5085931;28;20028;-71
2021/04/11 13:36:43;;;;;;;9.98;3.38;;;;;;;;;;5091520;28;20044;-68
2021/04/11 13:39:18;;;;;;;12.32;3.67;;;;;;;;;;5082380;28;20058;-68
2021/04/11 13:42:03;;;;;;;11.48;4.35;;;;;;;;;;5085961;28;20025;-69
2021/04/11 13:44:32;;;;;;;10.48;4.32;;;;;;;;;;5091355;28;20037;-68
2021/04/11 13:47:22;;;;;;;14.65;5.57;;;;;;;;;;5085853;28;20105;-67
2021/04/11 13:50:08;;;;;;;10.20;4.53;;;;;;;;;;5085315;28;20028;-67
2021/04/11 13:53:02;;;;;;;11.13;5.93;;;;;;;;;;5101533;28;20504;-67
2021/04/11 13:55:54;;;;;;;11.40;7.60;;;;;;;;;;5105935;27;20043;-67
2021/04/11 13:58:26;;;;;;;11.88;5.40;;;;;;;;;;5067373;28;20478;-67
2021/04/11 14:00:58;;;;;;;11.82;6.45;;;;;;;;;;5100973;27;20524;-67
2021/04/11 14:03:29;;;;;;;11.98;6.65;;;;;;;;;;5112679;27;20531;-68
2021/04/11 14:06:02;;;;;;;11.82;7.85;;;;;;;;;;5103997;28;20501;-68
2021/04/11 14:08:48;;;;;;;13.85;7.32;;;;;;;;;;5109299;27;20035;-69
2021/04/11 14:11:26;;;;;;;18.83;9.48;;;;;;;;;;5111753;27;20119;-67
2021/04/11 14:14:11;;;;;;;21.15;11.50;;;;;;;;;;5106861;27;20023;-67
2021/04/11 14:16:37;;;;;;;19.05;12.02;;;;;;;;;;5109595;27;20179;-67
2021/04/11 14:19:17;;;;;;;19.33;10.35;;;;;;;;;;5104325;27;20057;-66